Time;durP1;ratioP1;P1;durP2;ratioP2;P2;SDS_P1;SDS_P2;PMS_P1;PMS_P2;Temp;Humidity;BMP_temperature;BMP_pressure;BME280_temperature;BME280_humidity;BME280_pressure;Samples;Min_cycle;Max_cycle;Signal;HPM_P1;HPM_P2
2022/05/27 00:00:18;;;;;;;10.57;9.48;;;;;;;14.28;100.00;101108.97;5079258;28;20270;-52
2022/05/27 00:02:45;;;;;;;14.90;11.48;;;;;;;14.08;100.00;101097.75;5073070;28;20231;-52
2022/05/27 00:05:12;;;;;;;12.63;9.95;;;;;;;13.94;100.00;101094.38;5076545;28;20237;-54
2022/05/27 00:07:39;;;;;;;10.20;8.93;;;;;;;13.93;100.00;101084.66;5073870;28;21003;-52
2022/05/27 00:10:09;;;;;;;12.13;10.90;;;;;;;13.88;100.00;101079.44;5075134;28;20234;-52
2022/05/27 00:12:36;;;;;;;11.73;10.23;;;;;;;13.79;100.00;101076.88;5072459;28;20714;-52
2022/05/27 00:15:02;;;;;;;12.77;10.68;;;;;;;13.74;100.00;101076.06;5070220;28;20322;-51
2022/05/27 00:17:28;;;;;;;14.20;12.55;;;;;;;13.70;100.00;101074.34;5082408;28;20304;-52
2022/05/27 00:19:55;;;;;;;13.10;11.77;;;;;;;13.67;100.00;101064.66;5075362;28;20284;-53
2022/05/27 00:22:21;;;;;;;13.60;12.20;;;;;;;13.60;100.00;101071.75;5075723;28;20250;-52
2022/05/27 00:24:48;;;;;;;13.15;10.15;;;;;;;13.57;100.00;101060.34;5077416;28;20254;-52
2022/05/27 00:27:16;;;;;;;13.10;11.57;;;;;;;13.54;100.00;101057.75;5071318;28;20265;-51
2022/05/27 00:29:42;;;;;;;14.52;12.10;;;;;;;13.46;100.00;101055.16;5074216;28;20243;-52
2022/05/27 00:32:09;;;;;;;13.27;12.07;;;;;;;13.45;100.00;101044.63;5075278;28;22513;-51
2022/05/27 00:34:35;;;;;;;13.05;11.70;;;;;;;13.52;100.00;101052.50;5067402;28;20231;-51
2022/05/27 00:37:04;;;;;;;12.95;10.82;;;;;;;13.55;100.00;101051.59;5078361;28;20283;-51
2022/05/27 00:39:31;;;;;;;12.25;10.82;;;;;;;13.50;100.00;101046.34;5083348;28;20230;-51
2022/05/27 00:41:59;;;;;;;13.35;10.82;;;;;;;13.55;100.00;101041.03;5077899;28;20251;-52
2022/05/27 00:44:27;;;;;;;10.48;9.38;;;;;;;13.57;100.00;101041.88;5071397;28;20736;-53
2022/05/27 00:46:53;;;;;;;13.60;9.65;;;;;;;13.55;100.00;101034.00;5083265;28;20241;-51
2022/05/27 00:49:25;;;;;;;9.57;8.75;;;;;;;13.56;100.00;101029.59;5074517;28;20239;-52
2022/05/27 00:51:54;;;;;;;9.57;8.27;;;;;;;13.60;100.00;101026.03;5078329;28;20246;-51
2022/05/27 00:54:23;;;;;;;10.02;9.10;;;;;;;13.64;100.00;101029.53;5079393;28;20292;-52
2022/05/27 00:56:52;;;;;;;10.43;9.27;;;;;;;13.58;100.00;101019.88;5069178;28;20239;-54
2022/05/27 00:59:22;;;;;;;11.20;9.38;;;;;;;13.70;100.00;101027.72;5079164;28;20235;-53
2022/05/27 01:01:50;;;;;;;11.35;8.40;;;;;;;13.63;100.00;101023.38;5081054;28;20314;-53
2022/05/27 01:04:17;;;;;;;8.52;7.82;;;;;;;13.77;100.00;101028.53;5076452;28;20303;-52
2022/05/27 01:06:43;;;;;;;8.80;7.93;;;;;;;13.80;100.00;101017.94;5077172;28;20377;-53
2022/05/27 01:09:09;;;;;;;10.27;9.07;;;;;;;13.85;100.00;101021.41;5074066;28;20246;-52
2022/05/27 01:11:45;;;;;;;12.27;9.10;;;;;;;13.83;100.00;101028.47;5081119;28;20235;-53
2022/05/27 01:14:21;;;;;;;10.40;9.50;;;;;;;13.72;100.00;101011.84;5066217;28;20235;-53
2022/05/27 01:16:54;;;;;;;10.45;9.55;;;;;;;13.73;100.00;101010.97;5072207;28;20235;-51
2022/05/27 01:23:03;;;;;;;11.30;10.30;;;;;;;13.72;100.00;101015.34;5032669;28;20753;-54
2022/05/27 01:25:51;;;;;;;11.90;10.80;;;;;;;13.65;100.00;101007.50;5078109;28;20222;-52
2022/05/27 01:28:25;;;;;;;12.30;11.00;;;;;;;13.64;100.00;101008.41;5065681;28;20238;-54
2022/05/27 01:30:54;;;;;;;13.18;11.95;;;;;;;13.63;100.00;101004.03;5073240;28;20231;-52
2022/05/27 01:33:31;;;;;;;12.45;11.15;;;;;;;13.63;100.00;100996.13;5071606;28;20636;-53
2022/05/27 01:36:04;;;;;;;12.30;11.10;;;;;;;13.53;100.00;101003.22;5081709;28;20230;-54
2022/05/27 01:38:36;;;;;;;15.23;13.10;;;;;;;13.55;100.00;100996.19;5078110;28;20243;-52
2022/05/27 01:41:08;;;;;;;14.15;12.75;;;;;;;13.48;100.00;100994.47;5075446;28;20313;-52
2022/05/27 01:43:40;;;;;;;15.13;13.45;;;;;;;13.43;100.00;100991.88;5083788;28;20280;-53
2022/05/27 01:46:13;;;;;;;15.60;13.80;;;;;;;13.43;100.00;100983.09;5076499;28;20235;-52
2022/05/27 01:48:45;;;;;;;14.40;13.10;;;;;;;13.42;100.00;100984.88;5070794;28;20243;-52
2022/05/27 01:51:16;;;;;;;14.57;13.18;;;;;;;13.57;100.00;100989.13;5069691;28;20300;-52
2022/05/27 01:53:46;;;;;;;15.45;13.85;;;;;;;13.48;100.00;100978.66;5077210;28;20824;-52
2022/05/27 01:56:16;;;;;;;14.05;12.75;;;;;;;13.46;100.00;100986.59;5072202;28;20242;-54
2022/05/27 01:58:45;;;;;;;14.57;13.13;;;;;;;13.37;100.00;100981.38;5071209;28;20254;-52
2022/05/27 02:01:16;;;;;;;15.25;13.77;;;;;;;13.43;100.00;100983.09;5076060;28;20238;-53
2022/05/27 02:03:45;;;;;;;15.23;13.63;;;;;;;13.52;100.00;100975.13;5068124;28;20292;-53
2022/05/27 02:06:14;;;;;;;14.82;13.10;;;;;;;13.55;100.00;100970.69;5068286;28;20235;-52
2022/05/27 02:08:43;;;;;;;15.85;13.50;;;;;;;13.50;100.00;100976.88;5079668;28;20235;-51
2022/05/27 02:11:12;;;;;;;15.48;13.88;;;;;;;13.63;100.00;100973.25;5073627;28;20325;-52
2022/05/27 02:13:41;;;;;;;13.93;12.52;;;;;;;13.63;100.00;100962.69;5078741;28;20250;-51
2022/05/27 02:16:10;;;;;;;14.60;13.10;;;;;;;13.72;100.00;100973.13;5070762;28;20235;-54
2022/05/27 02:18:40;;;;;;;14.40;12.90;;;;;;;13.71;100.00;100965.25;5073925;28;20243;-51
2022/05/27 02:21:11;;;;;;;14.70;13.30;;;;;;;13.70;100.00;100967.00;5085446;28;20610;-54
2022/05/27 02:23:40;;;;;;;13.07;11.77;;;;;;;13.71;100.00;100968.75;5076571;28;20272;-53
2022/05/27 02:26:09;;;;;;;14.63;12.38;;;;;;;13.73;100.00;100963.47;5079169;28;20258;-52
2022/05/27 02:28:40;;;;;;;13.15;11.93;;;;;;;13.71;100.00;100970.53;5073092;28;20230;-51
2022/05/27 02:31:09;;;;;;;14.00;12.57;;;;;;;13.70;100.00;100972.28;5079590;28;20257;-51
2022/05/27 02:36:28;;;;;;;13.40;11.98;;;;;;;13.87;100.00;100973.91;5074718;28;20291;-51
2022/05/27 02:38:54;;;;;;;12.20;11.10;;;;;;;13.83;100.00;100973.06;5067817;28;20258;-52
2022/05/27 02:41:25;;;;;;;12.45;11.27;;;;;;;13.84;100.00;100973.03;5074378;28;20259;-52
2022/05/27 02:44:07;;;;;;;13.07;11.77;;;;;;;13.90;100.00;100981.75;5072146;28;20222;-52
2022/05/27 02:46:45;;;;;;;11.07;10.10;;;;;;;13.90;100.00;100976.47;5085449;28;20325;-52
2022/05/27 02:49:18;;;;;;;11.38;10.48;;;;;;;13.90;100.00;100971.19;5084192;28;20243;-53
2022/05/27 02:51:49;;;;;;;11.15;9.52;;;;;;;13.89;100.00;100958.91;5067073;28;20232;-51
2022/05/27 02:54:22;;;;;;;11.40;10.23;;;;;;;13.95;100.00;100958.84;5073008;28;20234;-53
2022/05/27 02:56:52;;;;;;;10.90;9.15;;;;;;;13.92;100.00;100966.78;5080644;28;20286;-53
2022/05/27 02:59:20;;;;;;;15.68;8.43;;;;;;;14.02;100.00;100960.50;5072483;28;20313;-53
2022/05/27 03:01:47;;;;;;;9.35;8.35;;;;;;;13.98;100.00;100964.97;5084015;28;20234;-52
2022/05/27 03:04:15;;;;;;;8.82;8.02;;;;;;;13.97;100.00;100951.75;5082313;28;20227;-51
2022/05/27 03:06:47;;;;;;;8.40;7.15;;;;;;;13.95;100.00;100962.34;5070505;28;20235;-54
2022/05/27 03:09:19;;;;;;;8.25;6.82;;;;;;;13.98;100.00;100959.69;5073512;28;20239;-52
2022/05/27 03:11:50;;;;;;;8.30;7.47;;;;;;;14.00;100.00;100964.94;5076006;28;20234;-54
2022/05/27 03:14:38;;;;;;;6.93;6.22;;;;;;;14.03;100.00;100956.97;5088003;28;20249;-52
2022/05/27 03:17:16;;;;;;;7.65;6.95;;;;;;;14.03;100.00;100952.56;5060081;28;20242;-51
2022/05/27 03:19:58;;;;;;;7.30;6.70;;;;;;;14.04;100.00;100950.81;5076119;28;20291;-53
2022/05/27 03:22:31;;;;;;;6.93;5.20;;;;;;;14.06;100.00;100944.59;5079094;28;20270;-53
2022/05/27 03:25:08;;;;;;;7.65;6.65;;;;;;;14.09;100.00;100946.34;5069411;28;20734;-51
2022/05/27 03:27:37;;;;;;;8.25;7.40;;;;;;;14.11;100.00;100944.56;5078799;28;20284;-52
2022/05/27 03:30:06;;;;;;;8.82;7.53;;;;;;;14.08;100.00;100948.13;5075347;28;20242;-52
2022/05/27 03:32:40;;;;;;;9.00;7.25;;;;;;;14.05;100.00;100944.63;5071698;28;20261;-52
2022/05/27 03:35:13;;;;;;;6.90;6.28;;;;;;;14.11;100.00;100954.22;5075554;28;20238;-51
2022/05/27 03:37:44;;;;;;;8.38;7.68;;;;;;;14.10;100.00;100958.66;5077263;28;20744;-50
2022/05/27 03:40:12;;;;;;;8.27;7.38;;;;;;;14.21;100.00;100956.75;5084556;28;20253;-52
2022/05/27 03:42:40;;;;;;;8.35;6.85;;;;;;;14.17;100.00;100956.81;5085648;28;20238;-52
2022/05/27 03:45:09;;;;;;;7.85;7.15;;;;;;;14.21;100.00;100951.47;5073646;28;20636;-51
2022/05/27 03:47:37;;;;;;;8.48;7.50;;;;;;;14.15;100.00;100961.25;5073098;28;20239;-51
2022/05/27 03:50:05;;;;;;;8.23;7.53;;;;;;;14.07;100.00;100956.03;5085302;28;20230;-53
2022/05/27 03:52:37;;;;;;;9.68;7.82;;;;;;;14.03;100.00;100954.34;5084992;28;20231;-55
2022/05/27 03:55:04;;;;;;;9.27;7.72;;;;;;;14.09;100.00;100959.56;5068287;28;20219;-51
2022/05/27 03:57:31;;;;;;;7.60;6.82;;;;;;;14.07;100.00;100953.41;5067388;28;20235;-52
2022/05/27 03:59:57;;;;;;;9.57;7.00;;;;;;;14.14;100.00;100956.84;5078588;28;20672;-52
2022/05/27 04:02:23;;;;;;;8.98;8.07;;;;;;;14.11;100.00;100965.69;5066114;28;20235;-52
2022/05/27 04:04:50;;;;;;;9.77;7.22;;;;;;;14.08;100.00;100965.72;5075120;28;20234;-53
2022/05/27 04:07:16;;;;;;;8.63;7.93;;;;;;;14.19;100.00;100969.13;5074709;28;20235;-53
2022/05/27 04:09:44;;;;;;;9.02;8.13;;;;;;;14.14;100.00;100960.34;5079899;28;20274;-52
2022/05/27 04:12:11;;;;;;;8.60;7.90;;;;;;;14.13;100.00;100958.63;5076754;28;20247;-53
2022/05/27 04:14:37;;;;;;;8.88;8.02;;;;;;;14.15;100.00;100956.84;5078639;28;20239;-53
2022/05/27 04:19:52;;;;;;;8.32;7.60;;;;;;;14.07;100.00;100953.41;5072048;28;20727;-52
2022/05/27 04:22:19;;;;;;;10.95;8.60;;;;;;;14.14;100.00;100955.06;5068172;28;20689;-52
2022/05/27 04:24:47;;;;;;;7.90;6.45;;;;;;;14.14;100.00;100943.63;5079956;28;20234;-52
2022/05/27 04:27:15;;;;;;;10.70;8.90;;;;;;;14.09;100.00;100941.06;5077573;28;20728;-52
2022/05/27 04:29:44;;;;;;;9.18;8.27;;;;;;;14.12;100.00;100943.66;5061148;28;20245;-52
2022/05/27 04:32:11;;;;;;;9.50;7.85;;;;;;;14.14;100.00;100954.19;5070902;28;20238;-52
2022/05/27 04:34:38;;;;;;;8.07;7.30;;;;;;;14.14;100.00;100938.34;5066603;28;20662;-51
2022/05/27 04:37:05;;;;;;;9.48;7.90;;;;;;;14.13;100.00;100937.50;5067638;28;20231;-54
2022/05/27 04:39:31;;;;;;;11.32;8.20;;;;;;;14.01;100.00;100941.16;5073258;28;20287;-51
2022/05/27 04:41:59;;;;;;;9.10;8.20;;;;;;;14.03;100.00;100956.97;5076856;28;20222;-51
2022/05/27 04:44:26;;;;;;;10.88;7.55;;;;;;;14.07;100.00;100950.75;5073386;28;20258;-51
2022/05/27 04:46:52;;;;;;;11.57;9.05;;;;;;;14.13;100.00;100958.63;5081817;28;20227;-54
2022/05/27 04:52:05;;;;;;;9.35;8.48;;;;;;;14.13;100.00;100963.91;5070143;28;20321;-52
2022/05/27 04:54:31;;;;;;;9.23;8.20;;;;;;;14.10;100.00;100963.94;5074226;28;20230;-52
2022/05/27 04:56:58;;;;;;;7.90;7.05;;;;;;;14.09;100.00;100968.34;5080297;28;20243;-52
2022/05/27 04:59:26;;;;;;;9.20;8.32;;;;;;;14.09;100.00;100967.47;5067268;28;20243;-52
2022/05/27 05:01:52;;;;;;;10.38;9.10;;;;;;;14.11;100.00;100952.50;5079566;28;20279;-52
2022/05/27 05:04:19;;;;;;;8.07;7.28;;;;;;;14.10;100.00;100958.66;5076407;28;20234;-53
2022/05/27 05:06:46;;;;;;;13.32;7.97;;;;;;;14.14;100.00;100970.91;5081751;28;20318;-53
2022/05/27 05:09:12;;;;;;;8.93;8.18;;;;;;;14.10;100.00;100971.84;5069743;28;20239;-53
2022/05/27 05:11:39;;;;;;;9.80;8.88;;;;;;;14.13;100.00;100974.47;5072453;28;20312;-52
2022/05/27 05:14:05;;;;;;;10.98;9.07;;;;;;;14.13;100.00;100979.75;5076370;28;20264;-52
2022/05/27 05:16:33;;;;;;;9.88;8.88;;;;;;;14.10;100.00;100974.50;5081152;28;20227;-52
2022/05/27 05:18:59;;;;;;;9.52;8.25;;;;;;;13.95;100.00;100979.94;5078903;28;20296;-54
2022/05/27 05:21:26;;;;;;;10.25;9.10;;;;;;;13.84;100.00;100996.78;5071274;28;20284;-53
2022/05/27 05:23:52;;;;;;;11.52;8.95;;;;;;;13.79;100.00;100990.69;5072295;28;20898;-53
2022/05/27 05:26:19;;;;;;;11.35;9.90;;;;;;;13.61;100.00;100997.00;5074355;28;20238;-53
2022/05/27 05:28:45;;;;;;;9.63;8.68;;;;;;;13.52;100.00;100996.22;5077372;28;20272;-54
2022/05/27 05:31:16;;;;;;;10.73;9.50;;;;;;;13.40;100.00;100993.66;5077498;28;20238;-54
2022/05/27 05:33:44;;;;;;;10.40;9.13;;;;;;;13.45;100.00;100991.88;5074033;28;20889;-55
2022/05/27 05:36:11;;;;;;;10.32;8.32;;;;;;;13.35;100.00;100981.41;5064794;28;20243;-54
2022/05/27 05:38:37;;;;;;;9.48;8.57;;;;;;;13.28;100.00;100990.25;5069604;28;20607;-55
2022/05/27 05:41:04;;;;;;;9.88;8.88;;;;;;;13.21;100.00;100979.75;5079933;28;20231;-54
2022/05/27 05:43:31;;;;;;;9.40;7.57;;;;;;;13.17;100.00;100972.75;5079254;28;20222;-56
2022/05/27 05:45:57;;;;;;;9.00;6.43;;;;;;;13.05;100.00;100981.59;5080806;28;20231;-54
2022/05/27 05:48:23;;;;;;;9.63;6.38;;;;;;;12.89;100.00;100941.31;5077632;28;20272;-54
2022/05/27 05:50:51;;;;;;;6.55;5.38;;;;;;;12.88;100.00;100940.44;5074367;28;20234;-56
2022/05/27 05:53:19;;;;;;;5.72;4.35;;;;;;;12.79;100.00;100953.69;5068324;28;20686;-54
2022/05/27 05:55:46;;;;;;;4.68;4.22;;;;;;;12.68;100.00;100955.50;5073594;28;20231;-53
2022/05/27 05:58:12;;;;;;;6.22;3.97;;;;;;;12.60;100.00;100959.94;5070932;28;20288;-55
2022/05/27 06:00:39;;;;;;;6.82;3.95;;;;;;;12.63;100.00;100946.75;5077291;28;20276;-54
2022/05/27 06:03:05;;;;;;;4.20;3.80;;;;;;;12.49;100.00;100951.22;5072770;28;20312;-53
2022/05/27 06:05:32;;;;;;;5.00;3.95;;;;;;;12.52;100.00;100964.38;5076662;28;20231;-54
2022/05/27 06:08:01;;;;;;;5.13;4.72;;;;;;;12.29;100.00;100943.44;5079961;28;20226;-53
2022/05/27 06:10:27;;;;;;;6.00;5.03;;;;;;;12.26;100.00;100933.78;5079912;28;20242;-53
2022/05/27 06:12:54;;;;;;;6.83;5.27;;;;;;;12.28;100.00;100921.47;5073655;28;20292;-53
2022/05/27 06:15:20;;;;;;;6.65;4.50;;;;;;;12.37;100.00;100945.13;5075321;28;20704;-54
2022/05/27 06:17:47;;;;;;;6.32;5.55;;;;;;;12.46;100.00;100953.88;5070828;28;20245;-53
2022/05/27 06:20:13;;;;;;;7.13;6.45;;;;;;;12.53;100.00;100955.56;5073198;28;20818;-52
2022/05/27 06:22:39;;;;;;;7.57;5.68;;;;;;;12.58;100.00;100951.19;5082415;28;20292;-52
2022/05/27 06:25:08;;;;;;;7.25;6.55;;;;;;;12.61;100.00;100945.91;5085508;28;20226;-53
2022/05/27 06:27:35;;;;;;;6.88;6.03;;;;;;;12.66;100.00;100965.16;5074545;28;20716;-53
2022/05/27 06:35:34;;;;;;;6.30;5.68;;;;;;;12.73;100.00;100961.59;5086207;28;20280;-53
2022/05/27 06:38:00;;;;;;;8.48;6.25;;;;;;;12.78;100.00;100965.09;5076852;28;20239;-53
2022/05/27 06:40:28;;;;;;;7.70;5.72;;;;;;;12.90;100.00;100965.00;5075066;28;20254;-53
2022/05/27 06:42:54;;;;;;;7.55;5.95;;;;;;;13.04;100.00;100970.19;5073243;28;20287;-53
2022/05/27 06:45:21;;;;;;;9.73;6.75;;;;;;;13.10;100.00;100971.91;5079536;28;20280;-53
2022/05/27 06:47:47;;;;;;;6.80;6.20;;;;;;;13.12;100.00;100968.34;5075860;28;20234;-53
2022/05/27 06:50:14;;;;;;;5.55;5.05;;;;;;;13.15;100.00;100970.09;5081984;28;20238;-54
2022/05/27 06:52:41;;;;;;;5.78;5.28;;;;;;;13.26;100.00;100977.97;5076925;28;20231;-53
2022/05/27 06:55:09;;;;;;;7.10;4.97;;;;;;;13.23;100.00;100978.84;5067700;28;20728;-52
2022/05/27 06:57:37;;;;;;;4.70;4.13;;;;;;;13.06;100.00;100978.09;5077437;28;20773;-54
2022/05/27 07:00:05;;;;;;;5.20;4.75;;;;;;;13.17;100.00;100968.34;5073797;28;20228;-52
2022/05/27 07:02:31;;;;;;;5.05;4.03;;;;;;;13.18;100.00;100979.75;5080265;28;20229;-54
2022/05/27 07:04:58;;;;;;;5.07;3.47;;;;;;;13.24;100.00;100970.06;5082245;28;20230;-53
2022/05/27 07:07:27;;;;;;;8.25;3.92;;;;;;;13.30;100.00;100977.94;5080447;28;20315;-53
2022/05/27 07:09:54;;;;;;;8.73;3.53;;;;;;;13.18;100.00;100975.34;5083218;28;20238;-53
2022/05/27 07:12:20;;;;;;;4.72;4.05;;;;;;;13.20;100.00;100977.97;5074496;28;20227;-53
2022/05/27 07:14:48;;;;;;;5.35;3.92;;;;;;;13.23;100.00;100973.56;5072553;28;20708;-54
2022/05/27 07:17:14;;;;;;;5.80;4.38;;;;;;;13.27;100.00;100985.88;5082083;28;20641;-56
2022/05/27 07:19:41;;;;;;;7.20;3.33;;;;;;;13.48;100.00;100970.72;5074752;28;20235;-53
2022/05/27 07:22:09;;;;;;;6.93;3.60;;;;;;;13.59;100.00;100984.72;5072659;28;20227;-54
2022/05/27 07:24:35;;;;;;;6.38;3.28;;;;;;;13.44;100.00;100969.00;5084426;28;20234;-54
2022/05/27 07:27:02;;;;;;;12.73;3.92;;;;;;;13.39;100.00;100969.06;5074926;28;20235;-53
2022/05/27 07:29:28;;;;;;;5.25;3.13;;;;;;;13.31;100.00;100976.19;5069959;28;20653;-54
2022/05/27 07:31:56;;;;;;;3.47;2.40;;;;;;;13.34;100.00;100969.13;5082229;28;20279;-53
2022/05/27 07:34:23;;;;;;;6.00;3.40;;;;;;;13.39;100.00;100962.91;5077863;28;20234;-53
2022/05/27 07:36:49;;;;;;;8.00;3.15;;;;;;;13.39;100.00;100968.19;5074780;28;20227;-53
2022/05/27 07:39:16;;;;;;;3.55;2.40;;;;;;;13.33;100.00;100969.97;5077610;28;20239;-54
2022/05/27 07:41:42;;;;;;;5.28;2.70;;;;;;;13.36;100.00;100969.97;5075931;28;20235;-52
2022/05/27 07:44:08;;;;;;;6.28;2.92;;;;;;;13.31;100.00;100976.19;5074447;28;20257;-52
2022/05/27 07:46:37;;;;;;;3.67;2.50;;;;;;;13.31;100.00;100984.09;5075233;28;20230;-51
2022/05/27 07:49:05;;;;;;;3.65;1.75;;;;;;;13.40;100.00;100985.75;5070799;28;20230;-51
2022/05/27 07:51:32;;;;;;;5.57;2.33;;;;;;;13.39;100.00;100982.25;5084006;28;20280;-52
2022/05/27 07:53:58;;;;;;;4.82;1.92;;;;;;;13.60;96.04;100982.06;5076623;28;20329;-52
2022/05/27 07:56:24;;;;;;;4.97;1.85;;;;;;;13.71;91.65;100989.88;5076018;28;20231;-52
2022/05/27 07:58:51;;;;;;;4.18;1.65;;;;;;;13.88;88.18;100983.56;5079692;28;20234;-51
2022/05/27 08:01:17;;;;;;;3.10;1.73;;;;;;;14.08;83.88;100981.56;5075372;28;20292;-54
2022/05/27 08:03:44;;;;;;;6.38;2.55;;;;;;;14.38;77.29;100982.09;5076630;28;20284;-51
2022/05/27 08:06:12;;;;;;;2.05;1.25;;;;;;;14.64;69.08;100982.66;5074416;28;20235;-52
2022/05/27 08:08:39;;;;;;;4.03;1.70;;;;;;;14.68;71.98;100973.78;5076542;28;20226;-51
2022/05/27 08:11:06;;;;;;;1.63;1.20;;;;;;;14.95;68.22;100979.56;5078095;28;20230;-52
2022/05/27 08:13:33;;;;;;;4.22;1.42;;;;;;;14.93;70.72;100984.00;5077009;28;20728;-52
2022/05/27 08:16:00;;;;;;;4.43;2.13;;;;;;;15.10;68.86;100976.69;5077601;28;20280;-52
2022/05/27 08:18:27;;;;;;;3.45;1.50;;;;;;;15.21;68.05;100976.53;5078222;28;20242;-52
2022/05/27 08:20:54;;;;;;;3.95;1.80;;;;;;;15.37;66.28;100979.78;5077525;28;20234;-51
2022/05/27 08:23:21;;;;;;;2.47;1.23;;;;;;;15.44;67.13;100986.69;5068896;28;20239;-53
2022/05/27 08:25:48;;;;;;;6.18;1.73;;;;;;;15.66;66.05;100985.47;5080971;28;20230;-52
2022/05/27 08:28:14;;;;;;;5.87;1.90;;;;;;;15.79;60.91;100982.59;5073281;28;20453;-53
2022/05/27 08:30:41;;;;;;;7.07;2.22;;;;;;;15.94;61.44;100983.19;5079729;28;20438;-53
2022/05/27 08:33:08;;;;;;;5.28;2.10;;;;;;;16.03;57.64;100971.53;5083314;28;20313;-52
2022/05/27 08:38:22;;;;;;;7.25;2.10;;;;;;;16.23;62.99;100979.09;5079680;28;20559;-52
2022/05/27 08:41:07;;;;;;;5.00;1.70;;;;;;;16.31;58.77;100984.22;5080212;28;20258;-52
2022/05/27 08:43:37;;;;;;;4.95;2.22;;;;;;;16.48;56.91;100984.75;5080858;28;20226;-50
2022/05/27 08:46:11;;;;;;;4.20;1.35;;;;;;;16.40;56.57;100984.03;5073068;28;20235;-52
2022/05/27 08:48:40;;;;;;;2.58;1.30;;;;;;;16.46;53.79;101008.66;5072153;28;20231;-51
2022/05/27 08:51:12;;;;;;;4.78;2.58;;;;;;;16.34;54.63;100985.03;5081291;28;20222;-52
2022/05/27 08:53:45;;;;;;;2.95;1.63;;;;;;;16.59;54.11;100989.81;5071845;28;20231;-53
2022/05/27 09:01:49;;;;;;;3.60;1.58;;;;;;;16.89;47.85;101006.88;5075052;28;20280;-51
2022/05/27 09:04:22;;;;;;;4.20;1.95;;;;;;;17.00;49.42;100994.22;5079027;28;20430;-51
2022/05/27 09:06:50;;;;;;;5.15;2.38;;;;;;;17.01;48.12;100992.44;5069480;28;20227;-51
2022/05/27 09:09:21;;;;;;;4.65;1.95;;;;;;;17.01;46.80;100997.75;5083612;28;20634;-52
2022/05/27 09:12:06;;;;;;;6.40;2.10;;;;;;;17.05;47.62;100994.97;5074291;28;20839;-53
2022/05/27 09:14:33;;;;;;;6.78;2.00;;;;;;;17.25;49.40;101006.91;5073078;28;20222;-53
2022/05/27 09:17:02;;;;;;;4.50;1.38;;;;;;;17.36;47.40;100986.28;5079810;28;20758;-52
2022/05/27 09:19:34;;;;;;;3.65;1.48;;;;;;;17.56;47.23;100989.31;5073078;28;20230;-52
2022/05/27 09:22:08;;;;;;;2.88;1.65;;;;;;;17.74;46.17;100997.72;5068155;28;20227;-51
2022/05/27 09:24:42;;;;;;;4.38;1.60;;;;;;;17.70;46.07;100985.44;5074565;28;20761;-52
2022/05/27 09:27:13;;;;;;;5.78;1.60;;;;;;;17.39;46.41;100991.50;5074795;28;20226;-53
2022/05/27 09:29:53;;;;;;;3.13;1.33;;;;;;;16.90;45.75;100992.69;5082512;28;20334;-52
2022/05/27 09:32:26;;;;;;;10.48;1.98;;;;;;;16.87;46.97;100995.41;5075499;28;20234;-52
2022/05/27 09:34:54;;;;;;;8.05;2.53;;;;;;;16.83;48.53;101001.69;5077391;28;20692;-53
2022/05/27 09:37:25;;;;;;;4.30;2.50;;;;;;;16.91;47.69;100999.72;5080113;28;20231;-53
2022/05/27 09:39:55;;;;;;;5.13;2.00;;;;;;;17.15;46.87;100998.28;5069617;28;20239;-55
2022/05/27 09:42:26;;;;;;;5.97;2.03;;;;;;;17.45;47.69;100991.38;5074592;28;20255;-53
2022/05/27 09:44:55;;;;;;;7.35;2.53;;;;;;;17.53;46.94;100994.69;5072329;28;20262;-53
2022/05/27 09:47:22;;;;;;;4.57;1.55;;;;;;;17.88;46.64;100984.97;5081938;28;20319;-51
2022/05/27 09:49:53;;;;;;;7.88;2.30;;;;;;;18.11;47.70;100990.53;5074634;28;20706;-52
2022/05/27 09:52:19;;;;;;;7.95;1.90;;;;;;;18.20;44.98;100984.06;5071492;28;20239;-52
2022/05/27 09:54:47;;;;;;;3.25;1.80;;;;;;;18.46;46.58;100988.63;5078980;28;20646;-52
2022/05/27 09:57:25;;;;;;;4.47;2.22;;;;;;;18.81;45.03;100992.03;5074298;28;20562;-55
2022/05/27 09:59:56;;;;;;;4.38;1.85;;;;;;;18.81;43.28;100995.56;5067358;28;20236;-51
2022/05/27 10:02:27;;;;;;;5.22;1.80;;;;;;;18.77;42.80;100991.25;5075613;28;20226;-54
2022/05/27 10:04:56;;;;;;;4.88;1.77;;;;;;;18.83;42.49;100985.75;5074103;28;20230;-53
2022/05/27 10:07:30;;;;;;;7.38;2.00;;;;;;;18.53;43.16;100973.34;5068009;28;20231;-52
2022/05/27 10:09:57;;;;;;;1.77;1.67;;;;;;;18.37;43.58;100980.91;5071685;28;20307;-54
2022/05/27 10:12:33;;;;;;;8.82;1.83;;;;;;;18.21;44.89;100998.22;5072927;28;20231;-52
2022/05/27 10:15:00;;;;;;;7.63;1.85;;;;;;;18.47;45.08;100994.81;5080545;28;20222;-52
2022/05/27 10:17:31;;;;;;;5.60;1.50;;;;;;;18.67;43.92;100986.22;5077771;28;20959;-52
2022/05/27 10:20:16;;;;;;;6.25;1.70;;;;;;;17.80;45.50;100989.63;5071650;28;20233;-52
2022/05/27 10:22:42;;;;;;;5.03;1.83;;;;;;;17.54;47.21;100991.13;5071479;28;26266;-51
2022/05/27 10:25:12;;;;;;;7.28;2.80;;;;;;;17.10;48.47;100994.88;5073105;28;20233;-52
2022/05/27 10:27:43;;;;;;;5.78;2.08;;;;;;;17.27;49.16;100991.81;5071011;28;20235;-53
2022/05/27 10:30:24;;;;;;;4.18;1.42;;;;;;;17.50;48.74;100993.91;5071923;28;20234;-52
2022/05/27 10:32:50;;;;;;;4.15;1.73;;;;;;;17.57;48.17;100998.13;5067044;28;20241;-53
2022/05/27 10:35:33;;;;;;;3.22;2.10;;;;;;;17.57;48.82;101006.97;5074810;28;20226;-53
2022/05/27 10:38:10;;;;;;;4.60;1.85;;;;;;;17.56;46.80;100997.28;5067939;28;20685;-52
2022/05/27 10:40:38;;;;;;;5.30;1.98;;;;;;;17.75;46.19;100991.47;5073350;28;20226;-54
2022/05/27 10:43:17;;;;;;;5.53;2.58;;;;;;;17.90;46.16;100991.13;5069661;28;20587;-54
2022/05/27 10:45:47;;;;;;;10.02;1.90;;;;;;;18.48;45.23;100981.47;5067077;28;20242;-52
2022/05/27 10:48:32;;;;;;;8.82;2.00;;;;;;;18.70;43.30;100980.81;5070878;28;20818;-53
2022/05/27 10:51:05;;;;;;;7.07;1.88;;;;;;;18.87;42.38;100978.53;5077089;28;20218;-52
2022/05/27 10:53:50;;;;;;;5.60;2.13;;;;;;;19.22;43.32;100973.88;5069031;28;20430;-51
2022/05/27 10:56:34;;;;;;;2.05;1.40;;;;;;;19.61;40.90;100968.97;5075534;28;20234;-52
2022/05/27 11:02:06;;;;;;;4.60;2.00;;;;;;;20.41;39.53;100961.66;5073587;28;20463;-52
2022/05/27 11:04:55;;;;;;;3.65;1.88;;;;;;;20.54;37.87;100963.91;5078745;28;20239;-52
2022/05/27 11:07:27;;;;;;;5.20;2.15;;;;;;;20.58;36.08;100960.19;5077466;28;20263;-52
2022/05/27 11:10:05;;;;;;;5.30;1.83;;;;;;;20.54;36.38;100970.09;5067956;28;20242;-52
2022/05/27 11:15:34;;;;;;;6.05;1.98;;;;;;;18.94;38.12;100957.94;5063049;28;20318;-52
2022/05/27 11:18:07;;;;;;;6.95;1.80;;;;;;;18.23;38.70;100959.19;5066912;28;20655;-53
2022/05/27 11:20:49;;;;;;;6.65;1.80;;;;;;;17.77;39.34;100957.81;5069963;28;20301;-52
2022/05/27 11:23:34;;;;;;;6.55;2.22;;;;;;;17.63;40.19;100967.00;5076020;28;20288;-51
2022/05/27 11:26:09;;;;;;;3.08;1.92;;;;;;;17.52;41.46;100963.75;5072345;28;20292;-51
2022/05/27 11:28:59;;;;;;;9.00;2.28;;;;;;;18.33;40.72;100950.03;5072843;28;20227;-53
2022/05/27 11:31:35;;;;;;;3.83;1.80;;;;;;;18.93;40.20;100946.41;5076690;28;20285;-52
2022/05/27 11:34:09;;;;;;;8.15;1.73;;;;;;;19.43;40.39;100940.34;5073762;28;20254;-51
2022/05/27 11:36:46;;;;;;;3.45;1.55;;;;;;;19.72;38.52;100942.00;5074464;28;20232;-51
2022/05/27 11:39:47;;;;;;;5.57;1.92;;;;;;;19.62;39.03;100946.78;5078780;28;20288;-50
2022/05/27 11:42:25;;;;;;;4.63;1.52;;;;;;;19.18;38.99;100940.28;5073974;28;20278;-52
2022/05/27 11:45:01;;;;;;;8.93;2.53;;;;;;;18.50;40.83;100945.06;5079125;28;20234;-52
2022/05/27 11:47:43;;;;;;;4.40;1.98;;;;;;;18.05;41.72;100953.47;5077008;28;20235;-52
2022/05/27 11:50:20;;;;;;;6.28;1.77;;;;;;;17.75;42.97;100973.75;5075371;28;20246;-52
2022/05/27 11:53:03;;;;;;;9.73;2.60;;;;;;;17.16;51.79;100997.38;5077841;28;20279;-52
2022/05/27 11:55:49;;;;;;;4.30;1.90;;;;;;;15.55;61.55;101011.22;5081222;28;20234;-53
2022/05/27 11:58:19;;;;;;;5.30;2.17;;;;;;;14.50;73.63;101000.47;5070804;28;20634;-51
2022/05/27 12:00:48;;;;;;;6.57;1.92;;;;;;;13.97;86.85;101000.19;5066794;28;20713;-51